Time;durP1;ratioP1;P1;durP2;ratioP2;P2;SDS_P1;SDS_P2;PMS_P1;PMS_P2;Temp;Humidity;BMP_temperature;BMP_pressure;BME280_temperature;BME280_humidity;BME280_pressure;Samples;Min_cycle;Max_cycle;Signal;HPM_P1;HPM_P2
2021/03/14 00:01:36;;;;;;;;;;;;;;;4.33;100.00;97758.19;5096601;28;20101;-84
2021/03/14 00:04:02;;;;;;;;;;;;;;;4.32;100.00;97762.16;5094858;28;19920;-84
2021/03/14 00:06:29;;;;;;;;;;;;;;;4.41;100.00;97770.72;5112156;28;19924;-84
2021/03/14 00:08:55;;;;;;;;;;;;;;;4.45;100.00;97760.44;5096402;28;20006;-84
2021/03/14 00:11:22;;;;;;;;;;;;;;;4.50;100.00;97762.72;5112024;28;19927;-84
2021/03/14 00:13:49;;;;;;;;;;;;;;;4.50;100.00;97764.72;5078405;28;19926;-84
2021/03/14 00:16:16;;;;;;;;;;;;;;;4.52;100.00;97765.06;5061306;28;19921;-84
2021/03/14 00:18:43;;;;;;;;;;;;;;;4.46;100.00;97770.28;5074937;28;19927;-84
2021/03/14 00:21:10;;;;;;;;;;;;;;;4.52;100.00;97792.72;5075055;28;19924;-84
2021/03/14 00:23:37;;;;;;;;;;;;;;;4.49;100.00;97788.81;5082353;28;20340;-84
2021/03/14 00:26:04;;;;;;;;;;;;;;;4.47;100.00;97805.03;5095153;28;19927;-84
2021/03/14 00:28:31;;;;;;;;;;;;;;;4.45;100.00;97806.66;5095756;28;19930;-84
2021/03/14 00:30:58;;;;;;;;;;;;;;;4.51;100.00;97814.09;5094735;28;20377;-83
2021/03/14 00:33:25;;;;;;;;;;;;;;;4.51;100.00;97819.63;5094888;28;20014;-84
2021/03/14 00:35:51;;;;;;;;;;;;;;;4.58;100.00;97802.94;5094725;28;19927;-84
2021/03/14 00:38:18;;;;;;;;;;;;;;;4.62;100.00;97820.25;5094648;28;19919;-83
2021/03/14 00:40:44;;;;;;;;;;;;;;;4.62;100.00;97839.63;5094713;28;20061;-84
2021/03/14 00:43:12;;;;;;;;;;;;;;;4.61;100.00;97838.06;5093645;28;19920;-84
2021/03/14 00:45:39;;;;;;;;;;;;;;;4.65;100.00;97844.34;5074379;28;19920;-83
2021/03/14 00:48:09;;;;;;;;;;;;;;;4.67;100.00;97850.25;5074672;28;20355;-84
2021/03/14 00:50:39;;;;;;;;;;;;;;;4.66;100.00;97854.22;5111098;28;19926;-83
2021/03/14 00:53:08;;;;;;;;;;;;;;;4.65;100.00;97868.47;5060889;28;19920;-83
2021/03/14 00:55:39;;;;;;;;;;;;;;;4.69;100.00;97850.63;5077311;28;19926;-84
2021/03/14 00:58:06;;;;;;;;;;;;;;;4.74;100.00;97882.59;5060741;28;19963;-83
2021/03/14 01:00:33;;;;;;;;;;;;;;;4.73;100.00;97890.09;5077627;28;20031;-84
2021/03/14 01:03:00;;;;;;;;;;;;;;;4.73;100.00;97869.94;5073994;28;19927;-84
2021/03/14 01:05:32;;;;;;;;;;;;;;;4.75;100.00;97873.88;5073659;28;20325;-84
2021/03/14 01:07:59;;;;;;;;;;;;;;;4.79;100.00;97885.69;5094522;28;19920;-84
2021/03/14 01:10:26;;;;;;;;;;;;;;;4.82;100.00;97895.13;5094152;28;20004;-83
2021/03/14 01:12:53;;;;;;;;;;;;;;;4.77;100.00;97901.91;5063502;28;19959;-84
2021/03/14 01:15:24;;;;;;;;;;;;;;;4.70;100.00;97885.38;5093325;28;20287;-84
2021/03/14 01:17:55;;;;;;;;;;;;;;;4.80;100.00;97914.91;5076866;28;19919;-84
2021/03/14 01:20:22;;;;;;;;;;;;;;;4.84;100.00;97904.59;5093778;28;20012;-84
2021/03/14 01:22:49;;;;;;;;;;;;;;;4.84;100.00;97910.13;5078685;28;19921;-83
2021/03/14 01:25:16;;;;;;;;;;;;;;;4.87;100.00;97914.84;5063558;28;20061;-84
2021/03/14 01:27:45;;;;;;;;;;;;;;;4.92;100.00;97883.91;5094976;28;20287;-83
2021/03/14 01:30:13;;;;;;;;;;;;;;;4.99;100.00;97897.69;5088251;28;19927;-83
2021/03/14 01:32:40;;;;;;;;;;;;;;;5.01;100.00;97850.97;5073438;28;20359;-85
2021/03/14 01:35:06;;;;;;;;;;;;;;;5.03;100.00;97822.88;5090755;28;20306;-84
2021/03/14 01:37:33;;;;;;;;;;;;;;;5.09;100.00;97822.00;5100374;28;19920;-83
2021/03/14 01:40:00;;;;;;;;;;;;;;;5.06;100.00;97838.66;5076613;28;19919;-84
2021/03/14 01:42:27;;;;;;;;;;;;;;;5.02;100.00;97843.47;5093818;28;20386;-84
2021/03/14 01:44:53;;;;;;;;;;;;;;;4.95;100.00;97860.94;5094507;28;20407;-83
2021/03/14 01:47:29;;;;;;;;;;;;;;;4.90;100.00;97853.13;5073284;28;19959;-84
2021/03/14 01:49:57;;;;;;;;;;;;;;;4.92;100.00;97861.78;5070346;28;19920;-83
2021/03/14 01:52:23;;;;;;;;;;;;;;;4.91;100.00;97868.53;5094637;28;19920;-83
2021/03/14 01:54:50;;;;;;;;;;;;;;;4.90;100.00;97878.03;5093053;28;20281;-83
2021/03/14 01:57:17;;;;;;;;;;;;;;;4.92;100.00;97872.84;5093481;28;19927;-83
2021/03/14 01:59:43;;;;;;;;;;;;;;;4.90;100.00;97869.72;5094374;28;20291;-83
2021/03/14 02:02:10;;;;;;;;;;;;;;;4.90;100.00;97877.25;5092962;28;20377;-83
2021/03/14 02:04:36;;;;;;;;;;;;;;;4.94;100.00;97872.44;5093170;28;19969;-83
2021/03/14 02:07:03;;;;;;;;;;;;;;;4.98;100.00;97876.72;5093223;28;20362;-83
2021/03/14 02:09:29;;;;;;;;;;;;;;;4.94;100.00;97870.47;5079621;28;19920;-83
2021/03/14 02:11:57;;;;;;;;;;;;;;;4.80;100.00;97876.16;5079819;28;20397;-83
2021/03/14 02:14:24;;;;;;;;;;;;;;;4.78;100.00;97867.50;5073364;28;19920;-84
2021/03/14 02:16:51;;;;;;;;;;;;;;;4.82;100.00;97900.66;5093113;28;19924;-83
2021/03/14 02:20:25;;;;;;;;;;;;;;;4.78;100.00;97909.03;5081096;28;20351;-83
2021/03/14 02:22:57;;;;;;;;;;;;;;;4.86;100.00;97913.25;5089140;28;19923;-84
2021/03/14 02:25:34;;;;;;;;;;;;;;;4.88;100.00;97921.94;5092578;28;19959;-83
2021/03/14 02:28:01;;;;;;;;;;;;;;;4.84;100.00;97915.66;5076114;28;19924;-83
2021/03/14 02:30:28;;;;;;;;;;;;;;;4.79;100.00;97941.03;5075685;28;19920;-83
2021/03/14 02:32:55;;;;;;;;;;;;;;;4.81;100.00;97935.88;5092694;28;19927;-84
2021/03/14 02:35:22;;;;;;;;;;;;;;;4.86;100.00;97946.47;5072340;28;19924;-83
2021/03/14 02:37:49;;;;;;;;;;;;;;;4.81;100.00;97938.63;5084963;28;20384;-84
2021/03/14 02:40:17;;;;;;;9.60;2.57;;;;;;;4.73;100.00;97909.47;5072266;28;19928;-84
2021/03/14 02:42:46;;;;;;;12.02;2.47;;;;;;;4.89;100.00;97962.25;5083331;28;20123;-83
2021/03/14 02:45:13;;;;;;;12.40;2.70;;;;;;;4.84;100.00;97940.56;5092087;28;20077;-84
2021/03/14 02:47:40;;;;;;;20.40;3.03;;;;;;;4.74;100.00;97919.31;5079988;28;20133;-83
2021/03/14 02:50:16;;;;;;;8.68;2.30;;;;;;;4.65;100.00;97924.56;5092701;28;20051;-83
2021/03/14 02:52:44;;;;;;;8.43;2.65;;;;;;;4.78;100.00;97933.94;5091816;28;20034;-83
2021/03/14 02:55:11;;;;;;;;;;;;;;;4.84;100.00;97954.41;5109609;28;20055;-83
2021/03/14 02:57:39;;;;;;;;;;;;;;;4.79;100.00;97946.56;5092543;28;19920;-84
2021/03/14 03:00:11;;;;;;;;;;;;;;;4.75;100.00;97953.31;5080920;28;19921;-83
2021/03/14 03:02:39;;;;;;;;;;;;;;;4.69;100.00;97954.97;5091304;28;19920;-83
2021/03/14 03:05:07;;;;;;;;;;;;;;;4.68;100.00;97953.41;5093464;28;19920;-83
2021/03/14 03:07:33;;;;;;;;;;;;;;;4.68;100.00;97954.16;5075603;28;20396;-83
2021/03/14 03:10:00;;;;;;;;;;;;;;;4.65;100.00;97946.69;5076125;28;19924;-83
2021/03/14 03:12:27;;;;;;;;;;;;;;;4.68;100.00;97972.78;5092140;28;20290;-84
2021/03/14 03:14:55;;;;;;;;;;;;;;;4.68;100.00;97967.25;5068308;28;20337;-84
2021/03/14 03:17:24;;;;;;;;;;;;;;;4.68;100.00;97983.84;5102731;28;19955;-84
2021/03/14 03:19:53;;;;;;;;;;;;;;;4.65;100.00;97970.84;5071978;28;19978;-84
2021/03/14 03:22:19;;;;;;;;;;;;;;;4.66;100.00;98003.63;5084193;28;19920;-84
2021/03/14 03:24:46;;;;;;;;;;;;;;;4.69;100.00;97980.66;5075578;28;19955;-84
2021/03/14 03:27:13;;;;;;;;;;;;;;;4.75;100.00;97978.22;5092212;28;19924;-84
2021/03/14 03:29:39;;;;;;;;;;;;;;;4.77;100.00;97987.69;5093250;28;19920;-84
2021/03/14 03:32:06;;;;;;;;;;;;;;;4.83;100.00;97991.56;5093352;28;20384;-84
2021/03/14 03:34:33;;;;;;;;;;;;;;;4.83;100.00;98008.19;5075373;28;19920;-83
2021/03/14 03:37:00;;;;;;;;;;;;;;;4.73;100.00;98025.69;5070951;28;19965;-84
2021/03/14 03:39:27;;;;;;;;;;;;;;;4.77;100.00;98009.81;5068923;28;19920;-84
2021/03/14 03:42:02;;;;;;;;;;;;;;;4.76;100.00;98013.78;5078541;28;19920;-84
2021/03/14 03:44:33;;;;;;;;;;;;;;;4.76;100.00;98008.25;5095719;28;20398;-84
2021/03/14 03:47:00;;;;;;;;;;;;;;;4.78;100.00;97999.53;5096645;28;19926;-83
2021/03/14 03:49:28;;;;;;;;;;;;;;;4.82;100.00;97992.78;5095594;28;19927;-84
2021/03/14 03:51:56;;;;;;;;;;;;;;;4.83;100.00;98002.63;5095054;28;20011;-83
2021/03/14 03:54:23;;;;;;;;;;;;;;;4.85;100.00;98025.16;5078911;28;19920;-84
2021/03/14 03:56:53;;;;;;;;;;;;;;;4.78;100.00;97994.81;5096787;28;19920;-83
2021/03/14 03:59:27;;;;;;;;;;;;;;;4.75;100.00;97990.09;5095440;28;19973;-84
2021/03/14 04:02:11;;;;;;;;;;;;;;;4.69;100.00;97979.88;5096193;28;20310;-83
2021/03/14 04:04:40;;;;;;;;;;;;;;;4.66;100.00;98002.81;5096466;28;19963;-86
2021/03/14 04:07:08;;;;;;;;;;;;;;;4.69;100.00;97986.19;5096493;28;19920;-84
2021/03/14 04:09:35;;;;;;;10.20;1.75;;;;;;;4.59;100.00;98006.44;5096305;28;19920;-85
2021/03/14 04:12:04;;;;;;;11.15;1.52;;;;;;;4.53;100.00;97969.34;5078280;28;20015;-83
2021/03/14 04:14:32;;;;;;;5.80;2.30;;;;;;;4.58;100.00;98007.66;5095120;28;20036;-85
2021/03/14 04:17:01;;;;;;;;;;;;;;;4.60;100.00;98021.06;5095194;28;20058;-85
2021/03/14 04:19:29;;;;;;;;;;;;;;;4.64;100.00;98055.00;5094777;28;19963;-84
2021/03/14 04:21:56;;;;;;;;;;;;;;;4.61;100.00;98051.09;5095394;28;20024;-84
2021/03/14 04:24:24;;;;;;;;;;;;;;;4.52;100.00;98061.84;5094800;28;19943;-83
2021/03/14 04:26:51;;;;;;;4.85;1.98;;;;;;;4.32;100.00;98041.44;5084886;28;19920;-83
2021/03/14 04:29:20;;;;;;;7.97;1.80;;;;;;;4.34;100.00;98033.53;5073866;28;20032;-86
2021/03/14 04:31:48;;;;;;;;;;;;;;;4.46;100.00;98091.13;5078152;28;20190;-83
2021/03/14 04:34:16;;;;;;;;;;;;;;;4.36;100.00;98089.19;5077635;28;19927;-83
2021/03/14 04:36:44;;;;;;;;;;;;;;;4.35;100.00;98087.63;5077779;28;19951;-83
2021/03/14 04:39:11;;;;;;;;;;;;;;;4.38;100.00;98094.31;5096092;28;19924;-84
2021/03/14 04:41:38;;;;;;;;;;;;;;;4.39;100.00;98104.97;5074344;28;19952;-84
2021/03/14 04:44:05;;;;;;;;;;;;;;;4.36;100.00;98114.09;5087572;28;20003;-83
2021/03/14 04:46:33;;;;;;;;;;;;;;;4.33;100.00;98103.84;5094996;28;19926;-83
2021/03/14 04:48:59;;;;;;;;;;;;;;;4.28;100.00;98120.88;5094300;28;20015;-83
2021/03/14 04:51:37;;;;;;;;;;;;;;;4.25;100.00;98110.63;5094651;28;19942;-83
2021/03/14 04:54:04;;;;;;;;;;;;;;;4.24;100.00;98136.69;5111254;28;19989;-83
2021/03/14 04:56:31;;;;;;;;;;;;;;;4.23;100.00;98096.41;5094290;28;19920;-83
2021/03/14 04:58:59;;;;;;;;;;;;;;;4.17;100.00;98131.22;5077677;28;19962;-83
2021/03/14 05:01:26;;;;;;;;;;;;;;;4.20;100.00;98122.09;5111060;28;20061;-84
2021/03/14 05:03:55;;;;;;;;;;;;;;;4.18;100.00;98132.78;5094016;28;19978;-83
2021/03/14 05:06:23;;;;;;;;;;;;;;;4.08;100.00;98144.69;5094016;28;20390;-83
2021/03/14 05:08:51;;;;;;;5.25;1.63;;;;;;;3.98;100.00;98123.44;5093471;28;19927;-83
2021/03/14 05:11:19;;;;;;;9.30;1.90;;;;;;;4.01;100.00;98150.25;5093621;28;20041;-83
2021/03/14 05:13:48;;;;;;;4.30;1.40;;;;;;;3.98;100.00;98131.72;5076868;28;20440;-83
2021/03/14 05:16:17;;;;;;;8.18;1.40;;;;;;;3.95;100.00;98148.31;5076543;28;20625;-83
2021/03/14 05:18:45;;;;;;;7.18;1.30;;;;;;;4.04;100.00;98146.69;5076696;28;20036;-83
2021/03/14 05:21:12;;;;;;;8.30;1.48;;;;;;;4.01;100.00;98133.66;5073118;28;20094;-83
2021/03/14 05:23:40;;;;;;;9.68;1.52;;;;;;;3.96;100.00;98158.97;5086097;28;20039;-83
2021/03/14 05:26:12;;;;;;;10.98;1.70;;;;;;;3.90;100.00;98151.47;5093238;28;20036;-83
2021/03/14 05:28:41;;;;;;;6.75;1.40;;;;;;;3.86;100.00;98170.84;5099613;28;20387;-83
2021/03/14 05:31:29;;;;;;;9.15;2.17;;;;;;;3.99;100.00;98205.16;5076183;28;20055;-83
2021/03/14 05:33:59;;;;;;;9.43;1.70;;;;;;;3.91;100.00;98200.81;5092933;28;20032;-83
2021/03/14 05:36:26;;;;;;;11.60;1.88;;;;;;;4.02;100.00;98204.34;5073006;28;20071;-83
2021/03/14 05:38:54;;;;;;;5.75;1.58;;;;;;;4.09;100.00;98201.53;5056374;28;20032;-83
2021/03/14 05:41:21;;;;;;;8.80;1.80;;;;;;;3.92;100.00;98194.13;5080681;28;20050;-83
2021/03/14 05:43:48;;;;;;;12.27;1.98;;;;;;;3.92;100.00;98205.19;5120574;27;20109;-83
2021/03/14 05:46:16;;;;;;;5.75;1.40;;;;;;;3.97;100.00;98204.75;5075792;28;20498;-83
2021/03/14 05:48:44;;;;;;;8.27;1.90;;;;;;;3.98;100.00;98205.53;5094030;28;20040;-83
2021/03/14 05:51:16;;;;;;;13.20;2.63;;;;;;;4.09;100.00;98222.88;5093836;28;20483;-83
2021/03/14 05:53:43;;;;;;;;;;;;;;;4.26;100.00;98250.44;5094496;28;20474;-83
2021/03/14 05:56:11;;;;;;;4.93;1.00;;;;;;;4.04;100.00;98209.47;5092671;28;20294;-83
2021/03/14 05:58:39;;;;;;;7.47;1.40;;;;;;;3.81;100.00;98243.09;5073952;28;20048;-84
2021/03/14 06:01:10;;;;;;;;;;;;;;;3.50;100.00;98285.34;5092627;28;20371;-83
2021/03/14 06:03:37;;;;;;;;;;;;;;;3.17;100.00;98283.00;5093037;28;19970;-83
2021/03/14 06:06:19;;;;;;;;;;;;;;;3.16;100.00;98275.91;5093486;28;19926;-84
2021/03/14 06:08:46;;;;;;;;;;;;;;;3.11;100.00;98251.44;5094051;28;20374;-88
2021/03/14 06:11:13;;;;;;;;;;;;;;;3.12;100.00;98297.19;5055986;28;19920;-85
2021/03/14 06:13:40;;;;;;;;;;;;;;;3.07;100.00;98272.75;5086349;28;19920;-84
2021/03/14 06:16:07;;;;;;;;;;;;;;;3.22;100.00;98271.56;5092451;28;20433;-84
2021/03/14 06:18:34;;;;;;;;;;;;;;;3.14;100.00;98262.50;5094061;28;19920;-84
2021/03/14 06:21:01;;;;;;;;;;;;;;;3.13;100.00;98276.69;5093049;28;20009;-83
2021/03/14 06:23:28;;;;;;;;;;;;;;;3.22;100.00;98274.31;5094297;28;19920;-84
2021/03/14 06:25:55;;;;;;;;;;;;;;;3.28;100.00;98236.84;5059094;28;19920;-84
2021/03/14 06:28:36;;;;;;;;;;;;;;;3.21;100.00;98259.72;5055855;28;20378;-84
2021/03/14 06:31:24;;;;;;;;;;;;;;;3.22;100.00;98279.84;5092157;28;19961;-84
2021/03/14 06:33:51;;;;;;;;;;;;;;;3.17;100.00;98280.22;5055854;28;20015;-84
2021/03/14 06:36:21;;;;;;;;;;;;;;;3.21;100.00;98284.56;5107295;28;20378;-84
2021/03/14 06:38:49;;;;;;;;;;;;;;;3.31;100.00;98292.09;5075862;28;19920;-83
2021/03/14 06:41:15;;;;;;;;;;;;;;;3.37;100.00;98273.16;5075243;28;20305;-84
2021/03/14 06:44:02;;;;;;;;;;;;;;;3.37;100.00;98292.47;5074166;28;19931;-86
2021/03/14 06:46:30;;;;;;;;;;;;;;;3.45;100.00;98294.06;5090424;28;20531;-83
2021/03/14 06:49:13;;;;;;;;;;;;;;;3.49;100.00;98290.13;5092450;28;20295;-82
2021/03/14 06:51:41;;;;;;;;;;;;;;;3.61;100.00;98308.25;5072060;28;20299;-79
2021/03/14 06:54:14;;;;;;;;;;;;;;;3.60;100.00;98312.97;5087120;28;19920;-81
2021/03/14 06:56:41;;;;;;;;;;;;;;;3.67;100.00;98306.66;5055945;28;19924;-81
2021/03/14 06:59:26;;;;;;;;;;;;;;;3.84;100.00;98329.94;5078285;28;19927;-82
2021/03/14 07:01:57;;;;;;;;;;;;;;;3.91;100.00;98338.22;5072833;28;19927;-83
2021/03/14 07:04:33;;;;;;;;;;;;;;;3.95;100.00;98333.47;5072179;28;19999;-83
2021/03/14 07:06:59;;;;;;;;;;;;;;;4.01;100.00;98332.69;5087213;28;20370;-79
2021/03/14 07:09:27;;;;;;;;;;;;;;;4.06;100.00;98350.84;5093690;28;21326;-84
2021/03/14 07:11:53;;;;;;;;;;;;;;;4.05;100.00;98344.50;5065387;28;19927;-84
2021/03/14 07:14:20;;;;;;;;;;;;;;;4.14;100.00;98328.31;5076273;28;19920;-85
2021/03/14 07:16:56;;;;;;;;;;;;;;;4.22;100.00;98343.69;5079452;28;19947;-84
2021/03/14 07:19:24;;;;;;;;;;;;;;;4.30;100.00;98331.41;5096565;28;19924;-85
2021/03/14 07:21:58;;;;;;;;;;;;;;;4.40;100.00;98340.88;5075924;28;19921;-85
2021/03/14 07:24:29;;;;;;;;;;;;;;;4.51;100.00;98333.34;5096515;28;20370;-85
2021/03/14 07:26:57;;;;;;;;;;;;;;;4.49;100.00;98330.16;5066463;28;19927;-85
2021/03/14 07:32:40;;;;;;;;;;;;;;;4.53;100.00;98380.75;5077576;28;19928;-85
2021/03/14 07:35:07;;;;;;;;;;;;;;;4.51;100.00;98439.25;5090547;28;20351;-85
2021/03/14 07:37:34;;;;;;;;;;;;;;;4.55;100.00;98469.66;5096798;28;20014;-79
2021/03/14 07:40:00;;;;;;;;;;;;;;;4.60;100.00;98481.13;5096247;28;20006;-81
2021/03/14 07:42:27;;;;;;;;;;;;;;;4.63;100.00;98502.47;5075484;28;20031;-85
2021/03/14 07:44:54;;;;;;;;;;;;;;;4.67;100.00;98514.31;5089022;28;19989;-85
2021/03/14 07:47:23;;;;;;;;;;;;;;;4.69;100.00;98522.22;5095486;28;20016;-86
2021/03/14 07:49:51;;;;;;;;;;;;;;;4.73;100.00;98534.06;5090102;28;19920;-85
2021/03/14 07:52:24;;;;;;;;;;;;;;;4.82;100.00;98548.28;5095399;28;20009;-85
2021/03/14 07:54:52;;;;;;;;;;;;;;;4.86;100.00;98577.53;5098014;28;19920;-85
2021/03/14 07:57:22;;;;;;;;;;;;;;;4.89;100.00;98560.13;5096130;28;19920;-83
2021/03/14 07:59:49;;;;;;;;;;;;;;;4.96;100.00;98604.44;5078822;28;19920;-85
2021/03/14 08:02:20;;;;;;;;;;;;;;;4.97;100.00;98606.00;5078415;28;19920;-85
2021/03/14 08:05:01;;;;;;;;;;;;;;;4.96;100.00;98609.97;5095565;28;19920;-84
2021/03/14 08:07:34;;;;;;;;;;;;;;;4.96;100.00;98637.66;5074941;28;20417;-85
2021/03/14 08:10:02;;;;;;;;;;;;;;;5.03;100.00;98648.72;5103600;28;19920;-84
2021/03/14 08:12:37;;;;;;;;;;;;;;;5.00;100.00;98652.28;5094867;28;19920;-84
2021/03/14 08:15:23;;;;;;;;;;;;;;;5.01;100.00;98655.84;5095256;28;20433;-84
2021/03/14 08:17:54;;;;;;;;;;;;;;;5.00;100.00;98660.59;5081297;28;20007;-83
2021/03/14 08:20:40;;;;;;;;;;;;;;;5.02;100.00;98674.84;5078358;28;20363;-84
2021/03/14 08:23:09;;;;;;;;;;;;;;;5.09;100.00;98679.56;5077943;28;19927;-84
2021/03/14 08:25:55;;;;;;;;;;;;;;;5.04;100.00;98689.06;5089792;28;19924;-85
2021/03/14 08:28:29;;;;;;;;;;;;;;;5.05;100.00;98698.97;5082412;28;19967;-85
2021/03/14 08:31:02;;;;;;;;;;;;;;;5.10;100.00;98681.94;5067677;28;19924;-85
2021/03/14 08:33:42;;;;;;;;;;;;;;;5.11;100.00;98716.78;5094765;28;19927;-85
2021/03/14 08:36:35;;;;;;;;;;;;;;;5.12;100.00;98696.19;5094698;28;19974;-85
2021/03/14 08:39:07;;;;;;;;;;;;;;;5.10;100.00;98704.09;5058337;28;19921;-85
2021/03/14 08:41:49;;;;;;;;;;;;;;;5.15;100.00;98720.31;5093638;28;19941;-84
2021/03/14 08:44:34;;;;;;;;;;;;;;;5.20;100.00;98719.94;5093063;28;19920;-83
2021/03/14 08:47:13;;;;;;;;;;;;;;;5.25;100.00;98733.41;5062069;28;19930;-85
2021/03/14 08:49:47;;;;;;;;;;;;;;;5.51;100.00;98746.81;5076184;28;19927;-85
2021/03/14 08:52:17;;;;;;;;;;;;;;;5.56;100.00;98740.09;5076048;28;19973;-85
2021/03/14 08:54:54;;;;;;;;;;;;;;;5.63;100.00;98742.06;5089281;28;19951;-85
2021/03/14 08:57:25;;;;;;;;;;;;;;;5.82;100.00;98756.31;5057378;28;19924;-84
2021/03/14 08:59:57;;;;;;;;;;;;;;;5.80;100.00;98735.69;5086598;28;19920;-83
2021/03/14 09:02:23;;;;;;;;;;;;;;;5.72;100.00;98739.66;5074502;28;19924;-82
2021/03/14 09:04:51;;;;;;;;;;;;;;;5.66;100.00;98741.25;5068569;28;19927;-79
2021/03/14 09:07:30;;;;;;;;;;;;;;;5.58;100.00;98738.50;5094165;28;20017;-84
2021/03/14 09:09:56;;;;;;;;;;;;;;;5.65;100.00;98745.25;5070028;28;19927;-84
2021/03/14 09:12:39;;;;;;;;;;;;;;;5.66;100.00;98741.25;5085906;28;20347;-83
2021/03/14 09:15:18;;;;;;;;;;;;;;;5.75;100.00;98733.31;5073269;28;19927;-85
2021/03/14 09:18:03;;;;;;;;;;;;;;;5.79;100.00;98720.25;5091151;28;19920;-89
2021/03/14 09:20:31;;;;;;;;;;;;;;;5.86;100.00;98714.72;5063748;28;19920;-85
2021/03/14 09:23:04;;;;;;;;;;;;;;;5.83;100.00;98699.66;5087416;28;19920;-82
2021/03/14 09:25:35;;;;;;;;;;;;;;;5.89;100.00;98705.59;5073541;28;19921;-82
2021/03/14 09:28:02;;;;;;;;;;;;;;;5.86;100.00;98700.88;5110454;28;19931;-87
2021/03/14 09:30:41;;;;;;;;;;;;;;;5.77;100.00;98687.38;5085877;28;19931;-84
2021/03/14 09:33:09;;;;;;;;;;;;;;;5.78;100.00;98688.97;5066562;28;20006;-82
2021/03/14 09:35:46;;;;;;;;;;;;;;;5.78;100.00;98660.44;5072726;28;19935;-88
2021/03/14 09:38:23;;;;;;;;;;;;;;;5.82;100.00;98681.44;5073508;28;19927;-87
2021/03/14 09:41:01;;;;;;;;;;;;;;;5.90;100.00;98657.25;5089063;28;19920;-91
2021/03/14 09:43:29;;;;;;;;;;;;;;;5.92;100.00;98643.78;5069407;28;19935;-89
2021/03/14 09:46:17;;;;;;;;;;;;;;;5.81;100.00;98620.84;5076900;28;19927;-88
2021/03/14 09:49:11;;;;;;;;;;;;;;;5.85;100.00;98632.72;5081415;28;19920;-86
2021/03/14 09:51:40;;;;;;;;;;;;;;;5.81;100.00;98634.69;5091380;28;19920;-86
2021/03/14 09:54:11;;;;;;;;;;;;;;;5.75;100.00;98639.06;5089867;28;19920;-86
2021/03/14 09:56:40;;;;;;;;;;;;;;;5.75;100.00;98627.97;5058214;28;19927;-86
2021/03/14 09:59:28;;;;;;;;;;;;;;;5.78;100.00;98643.81;5081737;28;19919;-85
2021/03/14 10:02:20;;;;;;;;;;;;;;;5.79;100.00;98618.47;5071360;28;19920;-79
2021/03/14 10:05:00;;;;;;;;;;;;;;;5.83;100.00;98596.31;5094968;28;20011;-78
2021/03/14 10:07:28;;;;;;;;;;;;;;;5.84;100.00;98573.72;5081263;28;19924;-86
2021/03/14 10:10:00;;;;;;;;;;;;;;;5.92;100.00;98599.44;5070404;28;19928;-91
2021/03/14 10:12:41;;;;;;;;;;;;;;;5.96;100.00;98600.19;5070933;28;20402;-85
2021/03/14 10:15:08;;;;;;;;;;;;;;;5.90;100.00;98607.34;5085014;28;19927;-85
2021/03/14 10:17:37;;;;;;;;;;;;;;;5.82;100.00;98617.69;5086480;28;19920;-85
2021/03/14 10:20:05;;;;;;;;;;;;;;;5.80;100.00;98627.56;5097935;28;19919;-83
2021/03/14 10:22:34;;;;;;;;;;;;;;;5.75;100.00;98617.69;5090074;28;19943;-85
2021/03/14 10:25:28;;;;;;;;;;;;;;;5.69;100.00;98612.97;5065967;28;19924;-84
2021/03/14 10:28:14;;;;;;;;;;;;;;;5.69;100.00;98618.50;5106403;28;20389;-85
2021/03/14 10:31:08;;;;;;;;;;;;;;;5.64;100.00;98622.47;5091238;28;19947;-83
2021/03/14 10:33:43;;;;;;;;;;;;;;;5.67;100.00;98629.19;5092029;28;20420;-88
2021/03/14 10:36:11;;;;;;;;;;;;;;;5.65;100.00;98606.66;5102581;28;19928;-87
2021/03/14 10:38:46;;;;;;;;;;;;;;;5.70;100.00;98600.66;5094963;28;19919;-87
2021/03/14 10:41:24;;;;;;;;;;;;;;;5.72;100.00;98606.63;5097261;28;20375;-87
2021/03/14 10:44:01;;;;;;;;;;;;;;;5.76;100.00;98605.41;5095776;28;19928;-86
2021/03/14 10:46:46;;;;;;;;;;;;;;;5.82;100.00;98617.69;5072048;28;20017;-85
2021/03/14 10:49:15;;;;;;;;;;;;;;;5.87;100.00;98608.16;5091092;28;19920;-87
2021/03/14 10:51:44;;;;;;;;;;;;;;;5.95;100.00;98626.34;5103843;28;19924;-88
2021/03/14 10:54:17;;;;;;;;;;;;;;;5.91;100.00;98628.38;5087795;28;19924;-90
2021/03/14 10:56:45;;;;;;;;;;;;;;;5.92;100.00;98629.94;5060527;28;20373;-89
2021/03/14 10:59:24;;;;;;;;;;;;;;;6.07;100.00;98626.69;5075911;28;19920;-83
2021/03/14 11:02:14;;;;;;;;;;;;;;;6.19;100.00;98630.97;5083652;28;19923;-78
2021/03/14 11:04:51;;;;;;;;;;;;;;;6.02;100.00;98613.25;5095984;28;20014;-88
2021/03/14 11:07:22;;;;;;;;;;;;;;;5.91;100.00;98600.63;5074931;28;19927;-92
2021/03/14 11:09:49;;;;;;;;;;;;;;;5.99;100.00;98621.56;5070137;28;20347;-90
2021/03/14 11:12:35;;;;;;;;;;;;;;;6.06;100.00;98627.09;5056750;28;20233;-89
2021/03/14 11:15:03;;;;;;;;;;;;;;;5.81;100.00;98638.25;5084258;28;19930;-89
2021/03/14 11:17:41;;;;;;;;;;;;;;;5.66;100.00;98622.09;5064765;28;19927;-89
2021/03/14 11:20:30;;;;;;;;;;;;;;;5.67;100.00;98605.06;5056317;28;19920;-91
2021/03/14 11:23:07;;;;;;;;;;;;;;;5.69;100.00;98629.59;5069521;28;19920;-91
2021/03/14 11:25:34;;;;;;;;;;;;;;;5.82;100.00;98631.56;5087118;28;19965;-91
2021/03/14 11:28:02;;;;;;;;;;;;;;;5.78;100.00;98636.28;5053468;28;19920;-92
2021/03/14 11:30:29;;;;;;;;;;;;;;;5.89;100.00;98644.59;5079582;28;19924;-90
2021/03/14 11:32:57;;;;;;;;;;;;;;;5.95;100.00;98638.25;5072155;28;19920;-92
2021/03/14 11:35:39;;;;;;;;;;;;;;;6.04;100.00;98646.13;5074212;28;19967;-93
2021/03/14 11:38:15;;;;;;;;;;;;;;;6.08;100.00;98619.94;5081189;28;19920;-94
2021/03/14 11:41:08;;;;;;;;;;;;;;;6.16;100.00;98635.38;5050371;28;20022;-94
2021/03/14 11:43:53;;;;;;;;;;;;;;;6.11;100.00;98634.97;5082243;28;20286;-94
2021/03/14 11:46:23;;;;;;;;;;;;;;;6.04;100.00;98623.94;5079532;28;19967;-94
2021/03/14 11:48:59;;;;;;;;;;;;;;;6.00;100.00;98623.16;5079614;28;20287;-95
2021/03/14 11:51:26;;;;;;;;;;;;;;;5.96;100.00;98622.38;5079935;28;19926;-93
2021/03/14 11:53:59;;;;;;;;;;;;;;;5.92;100.00;98618.84;5079356;28;19920;-94
2021/03/14 11:56:30;;;;;;;;;;;;;;;5.80;100.00;98619.25;5059284;28;20002;-94
2021/03/14 11:59:00;;;;;;;;;;;;;;;5.76;100.00;98618.47;5075945;28;19927;-94
2021/03/14 12:01:38;;;;;;;;;;;;;;;5.72;100.00;98634.34;5046101;28;19920;-92
2021/03/14 12:04:06;;;;;;;;;;;;;;;5.67;100.00;98618.09;5081328;28;19920;-80
2021/03/14 12:06:44;;;;;;;;;;;;;;;5.66;100.00;98630.41;5074984;28;20390;-90
2021/03/14 12:09:18;;;;;;;;;;;;;;;5.65;100.00;98634.38;5060526;28;19920;-93
2021/03/14 12:11:46;;;;;;;;;;;;;;;5.60;100.00;98608.63;5059501;28;19960;-91
2021/03/14 12:14:17;;;;;;;;;;;;;;;5.63;100.00;98643.84;5043368;28;19927;-92
2021/03/14 12:17:12;;;;;;;;;;;;;;;5.61;100.00;98631.59;5062967;28;20026;-93
2021/03/14 12:19:59;;;;;;;;;;;;;;;5.55;100.00;98638.75;5075395;28;20283;-91
2021/03/14 12:22:35;;;;;;;;;;;;;;;5.40;100.00;98640.78;5059491;28;20437;-93
2021/03/14 12:25:04;;;;;;;;;;;;;;;5.25;100.00;98639.22;5059348;28;19927;-93
2021/03/14 12:27:31;;;;;;;;;;;;;;;5.13;100.00;98641.59;5077890;28;19920;-91
2021/03/14 12:29:58;;;;;;;;;;;;;;;4.93;100.00;98610.78;5062781;28;19928;-91
2021/03/14 12:32:26;;;;;;;;;;;;;;;5.09;100.00;98624.97;5089950;28;19920;-93
2021/03/14 12:34:56;;;;;;;;;;;;;;;5.13;100.00;98633.28;5075850;28;19928;-93
2021/03/14 12:37:28;;;;;;;;;;;;;;;5.18;100.00;98624.59;5076351;28;19991;-92
2021/03/14 12:40:07;;;;;;;;;;;;;;;5.38;100.00;98628.50;5028699;28;20267;-94
2021/03/14 12:42:35;;;;;;;;;;;;;;;5.37;100.00;98647.13;5059513;28;20279;-83
2021/03/14 12:45:08;;;;;;;;;;;;;;;5.41;100.00;98647.88;5064826;28;20409;-93
2021/03/14 12:47:37;;;;;;;;;;;;;;;5.55;100.00;98633.19;5059275;28;19920;-89
2021/03/14 12:50:08;;;;;;;;;;;;;;;5.61;100.00;98648.22;5057453;28;20359;-88
2021/03/14 12:52:47;;;;;;;;;;;;;;;5.51;100.00;98638.75;5052436;28;19927;-91
2021/03/14 12:55:27;;;;;;;;;;;;;;;5.41;100.00;98689.44;5042551;28;19928;-93
2021/03/14 12:58:05;;;;;;;;;;;;;;;5.43;100.00;98678.75;5062702;28;20086;-92
2021/03/14 13:00:49;;;;;;;;;;;;;;;5.63;100.00;98696.50;5069088;28;19927;-92
2021/03/14 13:03:16;;;;;;;;;;;;;;;5.74;100.00;98687.41;5078672;28;20378;-90